sensor_id;sensor_type;location;lat;lon;timestamp;pressure;altitude;pressure_sealevel;temperature;humidity
36260;BME280;22296;50.824;5.644;2023-02-04T00:02:07;102342.09;;;14.86;59.06
36260;BME280;22296;50.824;5.644;2023-02-04T00:04:34;102352.06;;;14.87;59.14
36260;BME280;22296;50.824;5.644;2023-02-04T00:07:01;102349.31;;;14.82;59.40
36260;BME280;22296;50.824;5.644;2023-02-04T00:09:28;102355.41;;;14.84;59.07
36260;BME280;22296;50.824;5.644;2023-02-04T00:11:54;102351.56;;;14.80;59.13
36260;BME280;22296;50.824;5.644;2023-02-04T00:14:21;102351.25;;;14.81;59.08
36260;BME280;22296;50.824;5.644;2023-02-04T00:16:48;102353.75;;;14.78;59.25
36260;BME280;22296;50.824;5.644;2023-02-04T00:19:15;102355.72;;;14.77;59.04
36260;BME280;22296;50.824;5.644;2023-02-04T00:21:42;102349.91;;;14.74;59.48
36260;BME280;22296;50.824;5.644;2023-02-04T00:24:09;102351.56;;;14.75;59.23
36260;BME280;22296;50.824;5.644;2023-02-04T00:26:36;102352.13;;;14.72;59.41
36260;BME280;22296;50.824;5.644;2023-02-04T00:29:02;102361.56;;;14.71;59.46
36260;BME280;22296;50.824;5.644;2023-02-04T00:31:30;102356.56;;;14.68;59.47
36260;BME280;22296;50.824;5.644;2023-02-04T00:33:58;102363.81;;;14.69;59.41
36260;BME280;22296;50.824;5.644;2023-02-04T00:36:25;102364.38;;;14.66;59.44
36260;BME280;22296;50.824;5.644;2023-02-04T00:38:51;102364.38;;;14.66;59.55
36260;BME280;22296;50.824;5.644;2023-02-04T00:41:18;102374.91;;;14.64;59.45
36260;BME280;22296;50.824;5.644;2023-02-04T00:43:45;102373.81;;;14.65;59.44
36260;BME280;22296;50.824;5.644;2023-02-04T00:46:12;102373.53;;;14.61;59.51
36260;BME280;22296;50.824;5.644;2023-02-04T00:48:39;102381.00;;;14.61;59.57
36260;BME280;22296;50.824;5.644;2023-02-04T00:51:05;102383.00;;;14.60;59.62
36260;BME280;22296;50.824;5.644;2023-02-04T00:53:32;102378.78;;;14.58;59.62
36260;BME280;22296;50.824;5.644;2023-02-04T00:55:59;102374.94;;;14.54;59.72
36260;BME280;22296;50.824;5.644;2023-02-04T00:58:26;102369.94;;;14.56;59.71
36260;BME280;22296;50.824;5.644;2023-02-04T01:00:52;102380.50;;;14.54;59.83
36260;BME280;22296;50.824;5.644;2023-02-04T01:03:19;102383.25;;;14.54;59.81
36260;BME280;22296;50.824;5.644;2023-02-04T01:05:46;102379.09;;;14.51;59.86
36260;BME280;22296;50.824;5.644;2023-02-04T01:08:13;102383.28;;;14.49;59.96
36260;BME280;22296;50.824;5.644;2023-02-04T01:10:39;102386.59;;;14.51;59.96
36260;BME280;22296;50.824;5.644;2023-02-04T01:13:06;102379.66;;;14.48;60.04
36260;BME280;22296;50.824;5.644;2023-02-04T01:15:34;102385.47;;;14.47;60.15
36260;BME280;22296;50.824;5.644;2023-02-04T01:18:01;102389.38;;;14.46;59.99
36260;BME280;22296;50.824;5.644;2023-02-04T01:20:28;102394.94;;;14.46;59.94
36260;BME280;22296;50.824;5.644;2023-02-04T01:22:55;102392.16;;;14.46;60.00
36260;BME280;22296;50.824;5.644;2023-02-04T01:25:22;102388.81;;;14.44;59.97
36260;BME280;22296;50.824;5.644;2023-02-04T01:27:49;102389.38;;;14.41;60.05
36260;BME280;22296;50.824;5.644;2023-02-04T01:30:16;102392.97;;;14.41;60.23
36260;BME280;22296;50.824;5.644;2023-02-04T01:32:43;102390.50;;;14.40;60.15
36260;BME280;22296;50.824;5.644;2023-02-04T01:35:10;102387.72;;;14.40;60.05
36260;BME280;22296;50.824;5.644;2023-02-04T01:37:37;102388.81;;;14.39;60.16
36260;BME280;22296;50.824;5.644;2023-02-04T01:40:04;102390.75;;;14.38;59.98
36260;BME280;22296;50.824;5.644;2023-02-04T01:42:33;102386.06;;;14.39;60.02
36260;BME280;22296;50.824;5.644;2023-02-04T01:45:00;102393.84;;;14.37;60.07
36260;BME280;22296;50.824;5.644;2023-02-04T01:47:27;102396.59;;;14.37;60.27
36260;BME280;22296;50.824;5.644;2023-02-04T01:49:54;102393.84;;;14.37;60.07
36260;BME280;22296;50.824;5.644;2023-02-04T01:52:21;102398.53;;;14.36;60.02
36260;BME280;22296;50.824;5.644;2023-02-04T01:54:50;102394.38;;;14.34;60.19
36260;BME280;22296;50.824;5.644;2023-02-04T01:57:17;102394.38;;;14.34;60.11
36260;BME280;22296;50.824;5.644;2023-02-04T01:59:45;102399.94;;;14.34;60.09
36260;BME280;22296;50.824;5.644;2023-02-04T02:05:13;102386.31;;;14.32;60.03
36260;BME280;22296;50.824;5.644;2023-02-04T02:07:40;102383.81;;;14.31;60.29
36260;BME280;22296;50.824;5.644;2023-02-04T02:10:09;102390.19;;;14.31;60.12
36260;BME280;22296;50.824;5.644;2023-02-04T02:12:37;102387.69;;;14.29;60.04
36260;BME280;22296;50.824;5.644;2023-02-04T02:15:04;102394.06;;;14.30;60.33
36260;BME280;22296;50.824;5.644;2023-02-04T02:17:31;102390.47;;;14.29;60.16
36260;BME280;22296;50.824;5.644;2023-02-04T02:19:59;102394.38;;;14.28;60.06
36260;BME280;22296;50.824;5.644;2023-02-04T02:25:10;102392.97;;;14.26;60.04
36260;BME280;22296;50.824;5.644;2023-02-04T02:27:38;102386.59;;;14.25;60.00
36260;BME280;22296;50.824;5.644;2023-02-04T02:30:06;102389.63;;;14.24;60.16
36260;BME280;22296;50.824;5.644;2023-02-04T02:32:35;102380.75;;;14.22;60.25
36260;BME280;22296;50.824;5.644;2023-02-04T02:35:05;102377.16;;;14.21;60.19
36260;BME280;22296;50.824;5.644;2023-02-04T02:37:32;102383.81;;;14.20;60.28
36260;BME280;22296;50.824;5.644;2023-02-04T02:39:59;102391.84;;;14.22;60.24
36260;BME280;22296;50.824;5.644;2023-02-04T02:42:26;102380.75;;;14.22;60.19
36260;BME280;22296;50.824;5.644;2023-02-04T02:44:53;102390.19;;;14.21;60.14
36260;BME280;22296;50.824;5.644;2023-02-04T02:47:22;102400.75;;;14.19;59.95
36260;BME280;22296;50.824;5.644;2023-02-04T02:49:51;102399.91;;;14.18;60.15
36260;BME280;22296;50.824;5.644;2023-02-04T02:52:18;102402.13;;;14.16;60.35
36260;BME280;22296;50.824;5.644;2023-02-04T02:54:45;102404.91;;;14.16;60.27
36260;BME280;22296;50.824;5.644;2023-02-04T02:57:22;102404.06;;;14.16;60.29
36260;BME280;22296;50.824;5.644;2023-02-04T02:59:49;102404.34;;;14.14;60.08
36260;BME280;22296;50.824;5.644;2023-02-04T03:02:19;102415.47;;;14.14;60.22
36260;BME280;22296;50.824;5.644;2023-02-04T03:04:53;102423.78;;;14.14;60.19
36260;BME280;22296;50.824;5.644;2023-02-04T03:07:24;102416.56;;;14.13;60.17
36260;BME280;22296;50.824;5.644;2023-02-04T03:09:51;102425.97;;;14.12;60.24
36260;BME280;22296;50.824;5.644;2023-02-04T03:12:19;102431.53;;;14.12;60.18
36260;BME280;22296;50.824;5.644;2023-02-04T03:14:47;102438.75;;;14.13;60.28
36260;BME280;22296;50.824;5.644;2023-02-04T03:17:13;102444.84;;;14.10;60.16
36260;BME280;22296;50.824;5.644;2023-02-04T03:19:41;102437.63;;;14.09;60.40
36260;BME280;22296;50.824;5.644;2023-02-04T03:22:08;102442.38;;;14.09;60.26
36260;BME280;22296;50.824;5.644;2023-02-04T03:24:35;102441.53;;;14.08;60.21
36260;BME280;22296;50.824;5.644;2023-02-04T03:27:02;102441.53;;;14.08;60.44
36260;BME280;22296;50.824;5.644;2023-02-04T03:29:29;102449.28;;;14.06;60.56
36260;BME280;22296;50.824;5.644;2023-02-04T03:31:56;102451.50;;;14.04;60.52
36260;BME280;22296;50.824;5.644;2023-02-04T03:34:25;102445.09;;;14.04;60.38
36260;BME280;22296;50.824;5.644;2023-02-04T03:36:52;102454.81;;;14.06;60.28
36260;BME280;22296;50.824;5.644;2023-02-04T03:39:19;102455.13;;;14.05;60.39
36260;BME280;22296;50.824;5.644;2023-02-04T03:41:45;102464.53;;;14.04;60.49
36260;BME280;22296;50.824;5.644;2023-02-04T03:44:12;102470.38;;;14.02;60.29
36260;BME280;22296;50.824;5.644;2023-02-04T03:46:39;102472.84;;;14.04;60.21
36260;BME280;22296;50.824;5.644;2023-02-04T03:49:06;102463.16;;;14.01;60.26
36260;BME280;22296;50.824;5.644;2023-02-04T03:51:33;102464.81;;;13.97;60.63
36260;BME280;22296;50.824;5.644;2023-02-04T03:54:00;102469.25;;;13.98;60.41
36260;BME280;22296;50.824;5.644;2023-02-04T03:56:26;102468.94;;;13.95;60.46
36260;BME280;22296;50.824;5.644;2023-02-04T03:58:53;102467.59;;;13.97;60.35
36260;BME280;22296;50.824;5.644;2023-02-04T04:01:20;102480.03;;;13.95;60.57
36260;BME280;22296;50.824;5.644;2023-02-04T04:03:47;102486.16;;;13.97;60.53
36260;BME280;22296;50.824;5.644;2023-02-04T04:06:14;102489.78;;;13.97;60.38
36260;BME280;22296;50.824;5.644;2023-02-04T04:08:40;102503.91;;;13.96;60.34
36260;BME280;22296;50.824;5.644;2023-02-04T04:11:07;102495.59;;;13.96;60.36
36260;BME280;22296;50.824;5.644;2023-02-04T04:13:34;102502.53;;;13.98;60.30
36260;BME280;22296;50.824;5.644;2023-02-04T04:16:01;102504.22;;;13.99;60.38
36260;BME280;22296;50.824;5.644;2023-02-04T04:18:30;102500.03;;;13.97;60.55
36260;BME280;22296;50.824;5.644;2023-02-04T04:20:58;102499.47;;;13.95;60.57
36260;BME280;22296;50.824;5.644;2023-02-04T04:23:25;102502.81;;;13.92;60.50
36260;BME280;22296;50.824;5.644;2023-02-04T04:25:52;102501.13;;;13.91;60.73
36260;BME280;22296;50.824;5.644;2023-02-04T04:28:19;102498.91;;;13.88;60.61
36260;BME280;22296;50.824;5.644;2023-02-04T04:30:45;102505.53;;;13.87;60.55
36260;BME280;22296;50.824;5.644;2023-02-04T04:33:12;102496.97;;;13.88;60.70
36260;BME280;22296;50.824;5.644;2023-02-04T04:35:39;102499.16;;;13.86;60.76
36260;BME280;22296;50.824;5.644;2023-02-04T04:38:05;102501.38;;;13.84;60.71
36260;BME280;22296;50.824;5.644;2023-02-04T04:40:32;102506.09;;;13.84;60.69
36260;BME280;22296;50.824;5.644;2023-02-04T04:42:59;102506.91;;;13.84;60.71
36260;BME280;22296;50.824;5.644;2023-02-04T04:45:26;102502.50;;;13.83;60.57
36260;BME280;22296;50.824;5.644;2023-02-04T04:47:52;102498.06;;;13.82;60.50
36260;BME280;22296;50.824;5.644;2023-02-04T04:50:19;102493.88;;;13.80;60.76
36260;BME280;22296;50.824;5.644;2023-02-04T04:52:46;102499.97;;;13.82;60.52
36260;BME280;22296;50.824;5.644;2023-02-04T04:55:13;102499.16;;;13.81;60.75
36260;BME280;22296;50.824;5.644;2023-02-04T04:57:40;102498.59;;;13.79;60.69
36260;BME280;22296;50.824;5.644;2023-02-04T05:00:07;102503.59;;;13.77;60.46
36260;BME280;22296;50.824;5.644;2023-02-04T05:02:35;102498.31;;;13.76;60.57
36260;BME280;22296;50.824;5.644;2023-02-04T05:05:01;102509.38;;;13.76;60.63
36260;BME280;22296;50.824;5.644;2023-02-04T05:07:28;102511.91;;;13.77;60.51
36260;BME280;22296;50.824;5.644;2023-02-04T05:09:55;102509.38;;;13.76;60.44
36260;BME280;22296;50.824;5.644;2023-02-04T05:12:22;102511.63;;;13.74;60.53
36260;BME280;22296;50.824;5.644;2023-02-04T05:14:48;102512.69;;;13.73;60.54
36260;BME280;22296;50.824;5.644;2023-02-04T05:17:15;102507.44;;;13.71;60.78
36260;BME280;22296;50.824;5.644;2023-02-04T05:19:42;102503.53;;;13.72;60.61
36260;BME280;22296;50.824;5.644;2023-02-04T05:22:08;102505.75;;;13.70;60.74
36260;BME280;22296;50.824;5.644;2023-02-04T05:24:35;102515.19;;;13.69;60.80
36260;BME280;22296;50.824;5.644;2023-02-04T05:27:02;102516.84;;;13.70;60.59
36260;BME280;22296;50.824;5.644;2023-02-04T05:29:28;102516.31;;;13.68;60.56
36260;BME280;22296;50.824;5.644;2023-02-04T05:31:55;102522.94;;;13.67;60.72
36260;BME280;22296;50.824;5.644;2023-02-04T05:34:22;102525.72;;;13.67;60.66
36260;BME280;22296;50.824;5.644;2023-02-04T05:36:49;102514.06;;;13.65;60.66
36260;BME280;22296;50.824;5.644;2023-02-04T05:39:16;102515.72;;;13.66;60.67
36260;BME280;22296;50.824;5.644;2023-02-04T05:41:42;102508.78;;;13.63;60.42
36260;BME280;22296;50.824;5.644;2023-02-04T05:44:09;102497.97;;;13.62;60.53
36260;BME280;22296;50.824;5.644;2023-02-04T05:46:36;102506.84;;;13.59;60.72
36260;BME280;22296;50.824;5.644;2023-02-04T05:49:04;102518.19;;;13.57;60.69
36260;BME280;22296;50.824;5.644;2023-02-04T05:51:33;102524.56;;;13.58;60.76
36260;BME280;22296;50.824;5.644;2023-02-04T05:54:00;102510.16;;;13.56;60.74
36260;BME280;22296;50.824;5.644;2023-02-04T05:56:26;102518.19;;;13.57;60.53
36260;BME280;22296;50.824;5.644;2023-02-04T05:58:53;102521.22;;;13.56;60.54
36260;BME280;22296;50.824;5.644;2023-02-04T06:01:19;102527.88;;;13.55;60.62
36260;BME280;22296;50.824;5.644;2023-02-04T06:03:46;102528.47;;;13.57;60.66
36260;BME280;22296;50.824;5.644;2023-02-04T06:06:13;102536.19;;;13.55;60.47
36260;BME280;22296;50.824;5.644;2023-02-04T06:08:39;102532.84;;;13.53;60.53
36260;BME280;22296;50.824;5.644;2023-02-04T06:11:06;102543.94;;;13.53;60.80
36260;BME280;22296;50.824;5.644;2023-02-04T06:13:33;102537.84;;;13.51;60.69
36260;BME280;22296;50.824;5.644;2023-02-04T06:16:00;102535.63;;;13.48;60.59
36260;BME280;22296;50.824;5.644;2023-02-04T06:18:27;102542.81;;;13.49;60.70
36260;BME280;22296;50.824;5.644;2023-02-04T06:20:53;102553.34;;;13.47;60.65
36260;BME280;22296;50.824;5.644;2023-02-04T06:23:20;102545.03;;;13.47;60.56
36260;BME280;22296;50.824;5.644;2023-02-04T06:25:47;102545.31;;;13.45;60.64
36260;BME280;22296;50.824;5.644;2023-02-04T06:28:15;102550.84;;;13.45;60.69
36260;BME280;22296;50.824;5.644;2023-02-04T06:30:42;102550.53;;;13.42;60.96
36260;BME280;22296;50.824;5.644;2023-02-04T06:33:09;102553.31;;;13.42;60.69
36260;BME280;22296;50.824;5.644;2023-02-04T06:35:36;102558.84;;;13.42;60.72
36260;BME280;22296;50.824;5.644;2023-02-04T06:38:03;102553.31;;;13.42;60.76
36260;BME280;22296;50.824;5.644;2023-02-04T06:40:30;102556.34;;;13.40;60.72
36260;BME280;22296;50.824;5.644;2023-02-04T06:42:57;102559.38;;;13.39;60.88
36260;BME280;22296;50.824;5.644;2023-02-04T06:45:24;102552.16;;;13.38;60.82
36260;BME280;22296;50.824;5.644;2023-02-04T06:47:50;102566.56;;;13.35;60.67
36260;BME280;22296;50.824;5.644;2023-02-04T06:50:17;102571.00;;;13.36;60.84
36260;BME280;22296;50.824;5.644;2023-02-04T06:52:45;102563.78;;;13.35;60.66
36260;BME280;22296;50.824;5.644;2023-02-04T06:55:13;102569.34;;;13.35;60.77
36260;BME280;22296;50.824;5.644;2023-02-04T06:57:40;102573.22;;;13.34;60.56
36260;BME280;22296;50.824;5.644;2023-02-04T07:00:08;102574.06;;;13.34;60.62
36260;BME280;22296;50.824;5.644;2023-02-04T07:02:35;102573.22;;;13.34;60.59
36260;BME280;22296;50.824;5.644;2023-02-04T07:05:05;102577.41;;;13.36;60.86
36260;BME280;22296;50.824;5.644;2023-02-04T07:07:32;102581.56;;;13.39;60.58
36260;BME280;22296;50.824;5.644;2023-02-04T07:09:59;102584.91;;;13.41;60.34
36260;BME280;22296;50.824;5.644;2023-02-04T07:12:26;102581.03;;;13.42;60.40
36260;BME280;22296;50.824;5.644;2023-02-04T07:14:53;102584.94;;;13.46;60.38
36260;BME280;22296;50.824;5.644;2023-02-04T07:17:19;102593.19;;;13.83;60.17
36260;BME280;22296;50.824;5.644;2023-02-04T07:19:46;102594.13;;;14.13;59.90
36260;BME280;22296;50.824;5.644;2023-02-04T07:22:13;102604.16;;;14.29;59.89
36260;BME280;22296;50.824;5.644;2023-02-04T07:24:39;102605.34;;;14.44;59.91
36260;BME280;22296;50.824;5.644;2023-02-04T07:27:06;102608.72;;;14.56;59.12
36260;BME280;22296;50.824;5.644;2023-02-04T07:29:33;102615.41;;;14.65;58.82
36260;BME280;22296;50.824;5.644;2023-02-04T07:32:00;102619.31;;;14.79;58.43
36260;BME280;22296;50.824;5.644;2023-02-04T07:34:27;102615.44;;;14.85;57.91
36260;BME280;22296;50.824;5.644;2023-02-04T07:36:53;102606.25;;;14.84;57.79
36260;BME280;22296;50.824;5.644;2023-02-04T07:39:20;102615.97;;;15.07;57.39
36260;BME280;22296;50.824;5.644;2023-02-04T07:41:47;102619.91;;;15.06;57.11
36260;BME280;22296;50.824;5.644;2023-02-04T07:44:20;102617.66;;;15.18;56.75
36260;BME280;22296;50.824;5.644;2023-02-04T07:46:46;102624.31;;;15.27;56.50
36260;BME280;22296;50.824;5.644;2023-02-04T07:49:13;102620.69;;;15.37;56.22
36260;BME280;22296;50.824;5.644;2023-02-04T07:51:40;102620.16;;;15.40;56.04
36260;BME280;22296;50.824;5.644;2023-02-04T07:54:07;102622.63;;;15.41;56.18
36260;BME280;22296;50.824;5.644;2023-02-04T07:56:33;102637.09;;;15.44;56.21
36260;BME280;22296;50.824;5.644;2023-02-04T07:59:00;102635.44;;;15.53;55.84
36260;BME280;22296;50.824;5.644;2023-02-04T08:01:27;102635.16;;;15.59;55.58
36260;BME280;22296;50.824;5.644;2023-02-04T08:03:54;102643.22;;;15.56;55.74
36260;BME280;22296;50.824;5.644;2023-02-04T08:06:20;102641.84;;;15.63;55.62
36260;BME280;22296;50.824;5.644;2023-02-04T08:08:47;102646.56;;;15.63;55.60
36260;BME280;22296;50.824;5.644;2023-02-04T08:11:14;102640.94;;;15.73;55.64
36260;BME280;22296;50.824;5.644;2023-02-04T08:13:40;102640.66;;;15.79;55.39
36260;BME280;22296;50.824;5.644;2023-02-04T08:16:07;102639.81;;;15.79;55.51
36260;BME280;22296;50.824;5.644;2023-02-04T08:18:36;102647.59;;;15.87;55.34
36260;BME280;22296;50.824;5.644;2023-02-04T08:21:03;102653.16;;;15.87;55.09
36260;BME280;22296;50.824;5.644;2023-02-04T08:23:31;102658.16;;;15.90;55.16
36260;BME280;22296;50.824;5.644;2023-02-04T08:25:58;102655.38;;;15.95;55.28
36260;BME280;22296;50.824;5.644;2023-02-04T08:28:25;102663.69;;;16.05;54.99
36260;BME280;22296;50.824;5.644;2023-02-04T08:30:52;102660.91;;;16.05;55.07
36260;BME280;22296;50.824;5.644;2023-02-04T08:33:19;102660.38;;;16.03;55.16
36260;BME280;22296;50.824;5.644;2023-02-04T08:35:47;102669.22;;;16.10;54.82
36260;BME280;22296;50.824;5.644;2023-02-04T08:38:17;102664.50;;;16.11;54.84
36260;BME280;22296;50.824;5.644;2023-02-04T08:40:44;102670.63;;;16.18;54.79
36260;BME280;22296;50.824;5.644;2023-02-04T08:43:11;102666.97;;;16.22;54.67
36260;BME280;22296;50.824;5.644;2023-02-04T08:45:38;102673.66;;;16.16;54.83
36260;BME280;22296;50.824;5.644;2023-02-04T08:48:04;102670.88;;;16.21;54.65
36260;BME280;22296;50.824;5.644;2023-02-04T08:50:33;102670.88;;;16.21;55.65
36260;BME280;22296;50.824;5.644;2023-02-04T08:53:00;102685.03;;;16.35;55.35
36260;BME280;22296;50.824;5.644;2023-02-04T08:55:26;102683.31;;;16.44;55.08
36260;BME280;22296;50.824;5.644;2023-02-04T08:57:53;102676.59;;;16.50;55.05
36260;BME280;22296;50.824;5.644;2023-02-04T09:00:20;102679.16;;;16.41;54.87
36260;BME280;22296;50.824;5.644;2023-02-04T09:02:46;102690.84;;;16.43;55.01
36260;BME280;22296;50.824;5.644;2023-02-04T09:05:13;102694.19;;;16.40;54.85
36260;BME280;22296;50.824;5.644;2023-02-04T09:07:40;102696.13;;;16.40;54.78
36260;BME280;22296;50.824;5.644;2023-02-04T09:10:07;102692.81;;;16.38;54.95
36260;BME280;22296;50.824;5.644;2023-02-04T09:12:37;102696.16;;;16.35;54.72
36260;BME280;22296;50.824;5.644;2023-02-04T09:15:04;102691.34;;;16.50;54.49
36260;BME280;22296;50.824;5.644;2023-02-04T09:17:31;102685.84;;;16.40;54.67
36260;BME280;22296;50.824;5.644;2023-02-04T09:19:57;102687.22;;;16.43;54.61
36260;BME280;22296;50.824;5.644;2023-02-04T09:22:24;102689.16;;;16.42;54.73
36260;BME280;22296;50.824;5.644;2023-02-04T09:24:51;102686.41;;;16.37;54.88
36260;BME280;22296;50.824;5.644;2023-02-04T09:27:18;102690.56;;;16.40;54.80
36260;BME280;22296;50.824;5.644;2023-02-04T09:29:45;102687.25;;;16.38;54.82
36260;BME280;22296;50.824;5.644;2023-02-04T09:32:12;102692.22;;;16.46;54.64
36260;BME280;22296;50.824;5.644;2023-02-04T09:34:38;102690.25;;;16.46;54.57
36260;BME280;22296;50.824;5.644;2023-02-04T09:37:05;102700.25;;;16.47;54.65
36260;BME280;22296;50.824;5.644;2023-02-04T09:39:32;102709.72;;;16.51;54.48
36260;BME280;22296;50.824;5.644;2023-02-04T09:41:59;102705.88;;;16.42;54.87
36260;BME280;22296;50.824;5.644;2023-02-04T09:44:26;102701.69;;;16.50;54.61
36260;BME280;22296;50.824;5.644;2023-02-04T09:46:56;102714.19;;;16.47;54.50
36260;BME280;22296;50.824;5.644;2023-02-04T09:49:25;102701.06;;;16.53;54.55
36260;BME280;22296;50.824;5.644;2023-02-04T09:51:52;102708.66;;;16.42;54.81
36260;BME280;22296;50.824;5.644;2023-02-04T09:54:21;102718.13;;;16.46;54.72
36260;BME280;22296;50.824;5.644;2023-02-04T09:56:48;102710.88;;;16.45;54.82
36260;BME280;22296;50.824;5.644;2023-02-04T09:59:18;102704.16;;;16.57;54.40
36260;BME280;22296;50.824;5.644;2023-02-04T10:02:03;102718.13;;;16.46;54.66
36260;BME280;22296;50.824;5.644;2023-02-04T10:04:37;102712.53;;;16.46;54.83
36260;BME280;22296;50.824;5.644;2023-02-04T10:07:08;102708.63;;;16.58;54.66
36260;BME280;22296;50.824;5.644;2023-02-04T10:09:38;102708.09;;;16.56;54.63
36260;BME280;22296;50.824;5.644;2023-02-04T10:12:06;102711.13;;;16.49;54.97
36260;BME280;22296;50.824;5.644;2023-02-04T10:14:33;102713.38;;;16.47;54.80
36260;BME280;22296;50.824;5.644;2023-02-04T10:17:00;102710.03;;;16.45;54.94
36260;BME280;22296;50.824;5.644;2023-02-04T10:19:28;102724.78;;;16.56;54.78
36260;BME280;22296;50.824;5.644;2023-02-04T10:21:56;102713.63;;;16.50;54.97
36260;BME280;22296;50.824;5.644;2023-02-04T10:24:24;102720.59;;;16.48;55.02
36260;BME280;22296;50.824;5.644;2023-02-04T10:26:52;102731.72;;;16.63;54.94
36260;BME280;22296;50.824;5.644;2023-02-04T10:29:21;102730.25;;;16.81;54.45
36260;BME280;22296;50.824;5.644;2023-02-04T10:31:51;102738.25;;;16.92;54.15
36260;BME280;22296;50.824;5.644;2023-02-04T10:34:23;102738.53;;;16.96;54.34
36260;BME280;22296;50.824;5.644;2023-02-04T10:36:52;102741.31;;;16.91;54.18
36260;BME280;22296;50.824;5.644;2023-02-04T10:39:27;102735.81;;;16.81;54.64
36260;BME280;22296;50.824;5.644;2023-02-04T10:41:58;102741.97;;;16.78;54.63
36260;BME280;22296;50.824;5.644;2023-02-04T10:47:18;102736.34;;;16.83;54.27
36260;BME280;22296;50.824;5.644;2023-02-04T10:49:54;102729.09;;;16.82;54.43
36260;BME280;22296;50.824;5.644;2023-02-04T10:52:25;102733.56;;;16.83;54.13
36260;BME280;22296;50.824;5.644;2023-02-04T10:54:55;102728.59;;;16.75;54.73
36260;BME280;22296;50.824;5.644;2023-02-04T10:57:26;102735.00;;;16.75;54.57
36260;BME280;22296;50.824;5.644;2023-02-04T10:59:57;102728.06;;;16.68;54.97
36260;BME280;22296;50.824;5.644;2023-02-04T11:04:51;102731.38;;;16.75;54.70
36260;BME280;22296;50.824;5.644;2023-02-04T11:07:18;102726.66;;;16.70;54.67
36260;BME280;22296;50.824;5.644;2023-02-04T11:09:46;102728.63;;;16.70;54.63
36260;BME280;22296;50.824;5.644;2023-02-04T11:12:40;102724.53;;;17.01;54.34
36260;BME280;22296;50.824;5.644;2023-02-04T11:15:46;102720.31;;;17.08;54.30
36260;BME280;22296;50.824;5.644;2023-02-04T11:20:51;102737.22;;;17.22;54.10
36260;BME280;22296;50.824;5.644;2023-02-04T11:34:22;102753.13;;;17.22;54.25
36260;BME280;22296;50.824;5.644;2023-02-04T11:39:38;102750.03;;;17.23;54.22
36260;BME280;22296;50.824;5.644;2023-02-04T11:42:39;102738.34;;;17.21;54.08
36260;BME280;22296;50.824;5.644;2023-02-04T11:45:13;102742.25;;;17.20;54.01
36260;BME280;22296;50.824;5.644;2023-02-04T11:47:42;102746.72;;;17.21;53.67
36260;BME280;22296;50.824;5.644;2023-02-04T11:50:19;102744.97;;;17.30;53.99
36260;BME280;22296;50.824;5.644;2023-02-04T11:52:46;102742.47;;;17.29;53.79
36260;BME280;22296;50.824;5.644;2023-02-04T11:55:13;102743.31;;;17.29;53.80
36260;BME280;22296;50.824;5.644;2023-02-04T11:57:42;102738.63;;;17.20;53.84
36260;BME280;22296;50.824;5.644;2023-02-04T12:00:13;102734.41;;;17.27;53.60
36260;BME280;22296;50.824;5.644;2023-02-04T12:02:46;102736.84;;;17.39;53.88
36260;BME280;22296;50.824;5.644;2023-02-04T12:05:18;102743.78;;;17.36;53.89
36260;BME280;22296;50.824;5.644;2023-02-04T12:07:46;102738.22;;;17.36;53.81
36260;BME280;22296;50.824;5.644;2023-02-04T12:10:32;102739.63;;;17.34;54.03
36260;BME280;22296;50.824;5.644;2023-02-04T12:12:59;102740.19;;;17.36;53.75
36260;BME280;22296;50.824;5.644;2023-02-04T12:15:33;102743.00;;;17.36;53.69
36260;BME280;22296;50.824;5.644;2023-02-04T12:18:08;102735.63;;;17.45;54.16
36260;BME280;22296;50.824;5.644;2023-02-04T12:20:35;102743.97;;;17.55;53.62
36260;BME280;22296;50.824;5.644;2023-02-04T12:23:02;102746.44;;;17.56;53.81
36260;BME280;22296;50.824;5.644;2023-02-04T12:25:30;102743.66;;;17.56;53.53
36260;BME280;22296;50.824;5.644;2023-02-04T12:27:57;102732.00;;;17.49;53.40
36260;BME280;22296;50.824;5.644;2023-02-04T12:30:25;102734.25;;;17.47;53.35
36260;BME280;22296;50.824;5.644;2023-02-04T12:32:52;102740.91;;;17.51;53.60
36260;BME280;22296;50.824;5.644;2023-02-04T12:35:19;102739.88;;;17.37;53.93
36260;BME280;22296;50.824;5.644;2023-02-04T12:37:45;102734.31;;;17.37;53.77
36260;BME280;22296;50.824;5.644;2023-02-04T12:40:16;102737.16;;;17.32;54.00
36260;BME280;22296;50.824;5.644;2023-02-04T12:42:45;102740.47;;;17.34;53.92
36260;BME280;22296;50.824;5.644;2023-02-04T12:45:13;102734.31;;;17.37;53.88
36260;BME280;22296;50.824;5.644;2023-02-04T12:47:40;102736.03;;;17.33;53.67
36260;BME280;22296;50.824;5.644;2023-02-04T12:50:09;102732.38;;;17.38;53.82
36260;BME280;22296;50.824;5.644;2023-02-04T12:52:37;102737.41;;;17.36;53.53
36260;BME280;22296;50.824;5.644;2023-02-04T12:55:06;102735.44;;;17.36;53.68
36260;BME280;22296;50.824;5.644;2023-02-04T12:57:33;102741.47;;;17.48;53.47
36260;BME280;22296;50.824;5.644;2023-02-04T13:00:01;102746.00;;;17.44;53.65
36260;BME280;22296;50.824;5.644;2023-02-04T13:02:29;102750.47;;;17.40;53.56
36260;BME280;22296;50.824;5.644;2023-02-04T13:04:56;102738.19;;;17.41;53.74
36260;BME280;22296;50.824;5.644;2023-02-04T13:07:23;102744.63;;;17.37;53.52
36260;BME280;22296;50.824;5.644;2023-02-04T13:09:49;102740.72;;;17.38;53.43
36260;BME280;22296;50.824;5.644;2023-02-04T13:12:16;102737.03;;;17.47;53.22
36260;BME280;22296;50.824;5.644;2023-02-04T13:14:43;102738.16;;;17.46;53.28
36260;BME280;22296;50.824;5.644;2023-02-04T13:17:10;102729.63;;;17.33;53.69
36260;BME280;22296;50.824;5.644;2023-02-04T13:19:37;102727.63;;;17.38;53.76
36260;BME280;22296;50.824;5.644;2023-02-04T13:22:04;102732.06;;;17.39;53.40